Time,TemperatureF,DewpointF,PressureIn,WindDirection,WindDirectionDegrees,WindSpeedMPH,WindSpeedGustMPH,Humidity,HourlyPrecipIn,Conditions,Clouds,dailyrainin,SoftwareType,DateUTC
2013-04-02 00:06:00,27.5,10.4,29.63,WNW,288,7.0,7.0,48,0.00,,,0.47,Wunderground v.1.15,2013-04-02 04:06:00,
2013-04-02 00:36:00,27.2,9.1,29.62,NW,307,5.0,5.0,46,0.00,,,0.47,Wunderground v.1.15,2013-04-02 04:36:00,
2013-04-02 00:46:00,27.0,8.0,29.63,WNW,300,4.0,4.0,44,0.00,,,0.47,Wunderground v.1.15,2013-04-02 04:46:00,
2013-04-02 00:56:00,26.9,8.4,29.63,WNW,288,5.0,18.0,45,0.00,,,0.47,Wunderground v.1.15,2013-04-02 04:56:00,
2013-04-02 01:06:00,26.9,8.8,29.63,NNW,333,7.0,16.0,46,0.00,,,0.00,Wunderground v.1.15,2013-04-02 05:06:00,
2013-04-02 01:36:00,26.6,9.1,29.63,NNW,329,10.0,10.0,47,0.00,,,0.00,Wunderground v.1.15,2013-04-02 05:36:00,
2013-04-02 01:46:00,26.3,9.2,29.64,West,276,6.0,6.0,48,0.00,,,0.00,Wunderground v.1.15,2013-04-02 05:46:00,
2013-04-02 02:36:00,25.3,13.7,29.64,West,271,7.0,18.0,61,0.00,,,0.00,Wunderground v.1.15,2013-04-02 06:36:00,
2013-04-02 02:46:00,25.1,13.9,29.65,West,263,7.0,7.0,62,0.00,,,0.00,Wunderground v.1.15,2013-04-02 06:46:00,
2013-04-02 03:06:00,24.8,14.0,29.65,North,11,4.0,15.0,63,0.00,,,0.00,Wunderground v.1.15,2013-04-02 07:06:00,
2013-04-02 03:56:00,22.5,12.5,29.66,WNW,284,11.0,15.0,65,0.00,,,0.00,Wunderground v.1.15,2013-04-02 07:56:00,
2013-04-02 04:06:00,22.4,12.4,29.66,WNW,286,10.0,10.0,65,0.00,,,0.00,Wunderground v.1.15,2013-04-02 08:06:00,
2013-04-02 04:16:00,22.4,12.4,29.67,West,269,6.0,26.0,65,0.00,,,0.00,Wunderground v.1.15,2013-04-02 08:16:00,
2013-04-02 04:46:00,21.9,14.3,29.67,WNW,296,1.0,1.0,72,0.00,,,0.00,Wunderground v.1.15,2013-04-02 08:46:00,
2013-04-02 05:16:00,21.9,12.6,29.67,NW,325,2.0,2.0,67,0.00,,,0.00,Wunderground v.1.15,2013-04-02 09:16:00,
2013-04-02 05:26:00,22.2,11.9,29.67,WNW,294,4.0,7.0,64,0.00,,,0.00,Wunderground v.1.15,2013-04-02 09:26:00,
2013-04-02 06:36:00,22.1,10.3,29.69,WNW,298,5.0,11.0,60,0.00,,,0.00,Wunderground v.1.15,2013-04-02 10:36:00,
2013-04-02 06:46:00,22.2,10.0,29.69,West,274,5.0,11.0,59,0.00,,,0.00,Wunderground v.1.15,2013-04-02 10:46:00,
2013-04-02 06:56:00,22.5,8.7,29.69,NW,314,8.0,11.0,55,0.00,,,0.00,Wunderground v.1.15,2013-04-02 10:56:00,
2013-04-02 07:36:00,23.0,8.8,29.70,West,267,5.0,17.0,54,0.00,,,0.00,Wunderground v.1.15,2013-04-02 11:36:00,
2013-04-02 08:06:00,23.6,8.1,29.70,West,272,9.0,9.0,51,0.00,,,0.00,Wunderground v.1.15,2013-04-02 12:06:00,
2013-04-02 08:16:00,24.2,8.2,29.71,NW,311,5.0,5.0,50,0.00,,,0.00,Wunderground v.1.15,2013-04-02 12:16:00,
2013-04-02 08:26:00,24.2,5.9,29.71,NNW,327,9.0,9.0,45,0.00,,,0.00,Wunderground v.1.15,2013-04-02 12:26:00,
2013-04-02 08:36:00,24.7,6.3,29.71,West,262,9.0,23.0,45,0.00,,,0.00,Wunderground v.1.15,2013-04-02 12:36:00,
2013-04-02 08:46:00,25.1,5.7,29.71,WNW,287,8.0,23.0,43,0.00,,,0.00,Wunderground v.1.15,2013-04-02 12:46:00,
2013-04-02 08:56:00,25.0,5.6,29.71,West,273,9.0,9.0,43,0.00,,,0.00,Wunderground v.1.15,2013-04-02 12:56:00,
2013-04-02 09:06:00,24.8,6.4,29.71,West,273,9.0,9.0,45,0.00,,,0.00,Wunderground v.1.15,2013-04-02 13:06:00,
2013-04-02 09:16:00,25.4,7.5,29.72,West,269,4.0,19.0,46,0.00,,,0.00,Wunderground v.1.15,2013-04-02 13:16:00,
2013-04-02 09:36:00,25.6,7.2,29.71,West,269,6.0,18.0,45,0.00,,,0.00,Wunderground v.1.15,2013-04-02 13:36:00,
2013-04-02 09:46:00,25.0,9.8,29.71,NW,306,8.0,8.0,52,0.00,,,0.00,Wunderground v.1.15,2013-04-02 13:46:00,
2013-04-02 09:56:00,25.0,10.3,29.71,West,275,7.0,18.0,53,0.00,,,0.00,Wunderground v.1.15,2013-04-02 13:56:00,
2013-04-02 10:36:00,25.1,9.5,29.71,WNW,294,7.0,7.0,51,0.00,,,0.00,Wunderground v.1.15,2013-04-02 14:36:00,
2013-04-02 10:46:00,26.1,7.6,29.71,WNW,299,9.0,16.0,45,0.00,,,0.00,Wunderground v.1.15,2013-04-02 14:46:00,
2013-04-02 11:06:00,24.7,11.2,29.72,WNW,287,8.0,8.0,56,0.00,,,0.00,Wunderground v.1.15,2013-04-02 15:06:00,
2013-04-02 11:36:00,27.0,7.4,29.70,NW,322,8.0,8.0,43,0.00,,,0.00,Wunderground v.1.15,2013-04-02 15:36:00,
2013-04-02 11:46:00,27.5,11.3,29.70,West,275,5.0,5.0,50,0.00,,,0.00,Wunderground v.1.15,2013-04-02 15:46:00,
2013-04-02 12:06:00,25.8,11.8,29.70,WNW,294,6.0,17.0,55,0.00,,,0.00,Wunderground v.1.15,2013-04-02 16:06:00,
2013-04-02 13:36:00,30.3,6.5,29.67,WSW,244,6.0,27.0,36,0.00,,,0.00,Wunderground v.1.15,2013-04-02 17:36:00,
2013-04-02 13:46:00,29.5,5.8,29.67,West,279,9.0,27.0,36,0.00,,,0.00,Wunderground v.1.15,2013-04-02 17:46:00,
2013-04-02 14:16:00,32.1,6.8,29.65,WNW,292,7.0,7.0,34,0.00,,,0.00,Wunderground v.1.15,2013-04-02 18:16:00,
2013-04-02 14:26:00,33.2,5.8,29.65,WNW,284,7.0,20.0,31,0.00,,,0.00,Wunderground v.1.15,2013-04-02 18:26:00,
2013-04-02 15:06:00,31.3,6.1,29.65,West,270,10.0,10.0,34,0.00,,,0.00,Wunderground v.1.15,2013-04-02 19:06:00,
2013-04-02 15:36:00,30.3,11.0,29.65,West,278,9.0,18.0,44,0.00,,,0.00,Wunderground v.1.15,2013-04-02 19:36:00,
2013-04-02 15:46:00,30.7,10.8,29.65,West,265,10.0,23.0,43,0.00,,,0.00,Wunderground v.1.15,2013-04-02 19:46:00,
2013-04-02 17:16:00,27.8,11.1,29.68,WSW,255,11.0,19.0,49,0.00,,,0.00,Wunderground v.1.15,2013-04-02 21:16:00,
2013-04-02 18:06:00,27.5,9.9,29.70,West,279,5.0,20.0,47,0.00,,,0.00,Wunderground v.1.15,2013-04-02 22:06:00,
2013-04-02 18:36:00,27.2,11.0,29.72,WNW,287,3.0,20.0,50,0.00,,,0.00,Wunderground v.1.15,2013-04-02 22:36:00,
2013-04-02 18:46:00,26.9,12.9,29.72,WNW,284,2.0,20.0,55,0.00,,,0.00,Wunderground v.1.15,2013-04-02 22:46:00,
2013-04-02 18:56:00,26.4,12.8,29.72,WSW,240,5.0,20.0,56,0.00,,,0.00,Wunderground v.1.15,2013-04-02 22:56:00,
2013-04-02 19:26:00,25.7,12.9,29.73,WSW,255,4.0,16.0,58,0.00,,,0.00,Wunderground v.1.15,2013-04-02 23:26:00,
2013-04-02 20:06:00,25.6,12.9,29.74,WNW,285,2.0,13.0,58,0.00,,,0.00,Wunderground v.1.15,2013-04-03 00:06:00,
2013-04-02 21:26:00,25.3,13.3,29.75,SE,128,2.0,17.0,60,0.00,,,0.00,Wunderground v.1.15,2013-04-03 01:26:00,
2013-04-02 23:46:00,25.1,14.6,29.74,West,281,4.0,17.0,64,0.00,,,0.00,Wunderground v.1.15,2013-04-03 03:46:00,
2013-04-02 23:56:00,25.4,13.8,29.74,NW,319,7.0,17.0,61,0.00,,,0.00,Wunderground v.1.15,2013-04-03 03:56:00,